Belleville, New York
Current Conditions -  °F | °C
As of 1:56 AM on Tuesday 21 Oct 2014 (Local Time) from KART Reporting Station
Light Rain Light Rain  
Wind Chill: 11°   Ceiling: 3200
Heat Index: 11°   Visibility: 10mi
Dew Point:   Wind: 7mph
Humidity: 74%   Direction: 170°S
Pressure: 29.84"   Gusts: NA
Location:  43.78°N, 76.12°W
Report Text: KART 210556Z AUTO 17006KT 10SM -RA OVC032 11/06 A2984 RMK AO2 SLP104 P0000 60000 T01060061 10122 20100 58006
Loading
Personal Weather Stations






























Interactive Weather Map
Tropical Storm Tracking
New forecast layout! Learn more

10-Day Weather Forecast

Advertisements
Track Severe Weather on mobile